• Join FlightAware (Why Join?)
  • Login
  • US Flag 
03:33AM EDT


 

Airport Tracker/Info


-or-


 

Live Flight TrackerFlight Track Log ✈ EJA749 ✈ 15-Nov-2013 ✈ KTEB - KPBI

Flight Track Log - Related Links

Times and Time Zones

All times are in EST time to prevent confusion due to time zone crossing. See the EJA749 flight status page for this flight to view local times or setup timezone preferences in your user account.

Time Position Orientation Groundspeed Altitude Reporting Facility
EST Latitude Longitude Course Direction KTS MPH feet Rate Location/Type
06:04PM 40.8333 -74.1000 246° West 176 203 1,400  Level New York TRACON
06:05PM 40.8167 -74.1500 246° West 190 219 1,500 420 Climbing New York TRACON
06:06PM 40.8000 -74.2333 255° West 191 220 2,300 1,020 Climbing New York TRACON
06:07PM 40.7667 -74.2500 201° Southwest 192 221 3,600 1,740 Climbing New York TRACON
06:08PM 40.6833 -74.2500 180° South 260 299 5,800 1,140 Climbing New York TRACON
06:09PM 40.6167 -74.2667 191° South 271 312 6,100 120 Climbing New York TRACON
06:10PM 40.5333 -74.2667 180° South 271 312 6,100  Level New York TRACON
06:11PM 40.4667 -74.2333 159° South 279 321 6,100 540 Level New York TRACON
06:13PM 40.2961 -74.1672 164° South 281 323 8,000 1,320 Climbing New York Center
06:14PM 40.2203 -74.1906 193° South 274 315 10,600 2,940 Climbing New York Center
06:15PM 40.1467 -74.2114 192° South 290 334 13,900 3,240 Climbing New York Center
06:18PM 39.9256 -74.3281 202° Southwest 351 404 21,900 2,700 Climbing Washington Center
06:19PM 39.8369 -74.4108 216° Southwest 374 430 23,500 1,620 Climbing Washington Center
06:20PM 39.7544 -74.5172 225° Southwest 404 465 25,200 1,860 Climbing Washington Center
06:21PM 39.6700 -74.6264 225° Southwest 423 487 27,300 2,040 Climbing Washington Center
06:22PM 39.5875 -74.7353 226° Southwest 428 493 29,400 2,040 Climbing Washington Center
06:23PM 39.5008 -74.8519 226° Southwest 428 493 31,500 1,200 Climbing Washington Center
06:24PM 39.4222 -74.9522 225° Southwest 415 478 31,900 300 Climbing Washington Center
06:25PM 39.3478 -75.0522 226° Southwest 404 465 32,200 1,080 Climbing Washington Center
06:26PM 39.2564 -75.1358 215° Southwest 399 459 34,100 1,860 Climbing Washington Center
06:27PM 39.1522 -75.1742 196° South 393 452 36,000 1,620 Climbing Washington Center
06:28PM 39.0503 -75.2200 199° South 388 447 37,400 960 Climbing Washington Center
06:29PM 38.9503 -75.2606 198° South 388 447 38,000 300 Climbing Washington Center
06:30PM 38.8442 -75.3039 198° South 388 447 38,000  Level Washington Center
06:31PM 38.7378 -75.3522 200° South 393 452 38,000  Level Washington Center
06:32PM 38.6358 -75.3922 197° South 393 452 38,000  Level Washington Center
06:33PM 38.5317 -75.4406 200° South 393 452 38,000  Level Washington Center
06:34PM 38.4253 -75.4750 194° South 393 452 38,000  Level Washington Center
06:35PM 38.3253 -75.5256 202° Southwest 398 458 38,000  Level Washington Center
06:36PM 38.2378 -75.5758 204° Southwest 398 458 38,000  Level Washington Center
06:37PM 38.1419 -75.6367 207° Southwest 393 452 38,000  Level Washington Center
06:38PM 38.0481 -75.6972 207° Southwest 382 440 38,000  Level Washington Center
06:39PM 37.9478 -75.7631 207° Southwest 382 440 38,000  Level Washington Center
06:40PM 37.8517 -75.8206 205° Southwest 382 440 38,000  Level Washington Center
06:41PM 37.7536 -75.8703 202° Southwest 388 447 38,000  Level Washington Center
06:42PM 37.6533 -75.9197 201° Southwest 388 447 38,000 240 Level Washington Center
06:43PM 37.5572 -75.9717 203° Southwest 388 447 38,500 720 Climbing Washington Center
06:44PM 37.4611 -76.0208 202° Southwest 383 441 39,500 720 Climbing Washington Center
06:45PM 37.3672 -76.0700 203° Southwest 378 435 40,000 240 Climbing Washington Center
06:46PM 37.2794 -76.1164 203° Southwest 378 435 40,000  Level Washington Center
06:47PM 37.1792 -76.1600 199° South 378 435 40,000  Level Washington Center
06:48PM 37.0808 -76.2036 199° South 378 435 40,000  Level Washington Center
06:49PM 36.9803 -76.2497 200° South 378 435 40,000  Level Washington Center
06:50PM 36.8800 -76.2903 198° South 383 441 40,000  Level Washington Center
06:51PM 36.7797 -76.3336 199° South 383 441 40,000  Level Washington Center
06:52PM 36.6792 -76.3792 200° South 383 441 40,000  Level Washington Center
06:53PM 36.5767 -76.4222 199° South 389 448 40,000  Level Washington Center
06:54PM 36.4742 -76.4625 198° South 389 448 40,000  Level Washington Center
06:55PM 36.3717 -76.5025 197° South 389 448 40,000  Level Washington Center
06:56PM 36.2692 -76.5453 199° South 389 448 40,000  Level Washington Center
06:57PM 36.1644 -76.5850 197° South 389 448 40,000 -60 Level Washington Center
06:58PM 36.0619 -76.6275 199° South 384 442 39,900  Descending Washington Center
06:59PM 35.9592 -76.6697 198° South 384 442 40,000  Climbing Washington Center
07:00PM 35.8567 -76.7119 198° South 384 442 40,000  Level Washington Center
07:01PM 35.7539 -76.7514 197° South 384 442 40,000  Level Washington Center
07:02PM 35.6514 -76.7933 198° South 384 442 40,000  Level Washington Center
07:03PM 35.5383 -76.8403 199° South 384 442 40,000  Level Washington Center
07:04PM 35.4314 -76.8819 198° South 389 448 40,000  Level Washington Center
07:05PM 35.3267 -76.9236 198° South 394 453 40,000  Level Washington Center
07:06PM 35.2239 -76.9650 198° South 394 453 40,000  Level Washington Center
07:07PM 35.1211 -77.0064 198° South 394 453 40,000  Level Washington Center
07:08PM 35.0164 -77.0503 199° South 394 453 40,000  Level Washington Center
07:09PM 34.9114 -77.0914 198° South 394 453 40,000  Level Washington Center
07:10PM 34.8086 -77.1325 198° South 394 453 40,000  Level Washington Center
07:11PM 34.7017 -77.1711 197° South 394 453 40,000  Level Washington Center
07:12PM 34.5969 -77.2169 200° South 394 453 40,000  Level Washington Center
07:13PM 34.4919 -77.2550 197° South 400 460 40,000  Level Washington Center
07:17PM 34.0886 -77.4117 198° South 404 465 40,000  Level Jacksonville Center
07:18PM 33.9819 -77.4508 197° South 404 465 40,000  Level Jacksonville Center
07:19PM 33.8731 -77.4900 197° South 404 465 40,000  Level Jacksonville Center
07:20PM 33.7644 -77.5367 200° South 404 465 40,000  Level Jacksonville Center
07:21PM 33.6575 -77.5731 196° South 404 465 40,000  Level Jacksonville Center
07:22PM 33.5406 -77.6225 199° South 410 472 40,000  Level Jacksonville Center
07:23PM 33.4317 -77.6614 197° South 410 472 40,000  Level Jacksonville Center
07:24PM 33.3228 -77.7025 198° South 415 478 40,000  Level Jacksonville Center
07:25PM 33.2139 -77.7461 199° South 415 478 40,000  Level Jacksonville Center
07:26PM 33.1050 -77.7847 197° South 415 478 40,000  Level Jacksonville Center
07:27PM 33.0003 -77.8278 199° South 410 472 40,000  Level Jacksonville Center
07:28PM 32.8911 -77.8661 196° South 416 479 40,000  Level Jacksonville Center
07:29PM 32.7822 -77.9067 197° South 411 473 40,000  Level Jacksonville Center
07:30PM 32.6753 -77.9497 199° South 411 473 40,000  Level Jacksonville Center
07:31PM 32.5642 -77.9903 197° South 411 473 40,000  Level Jacksonville Center
07:32PM 32.4550 -78.0281 196° South 416 479 40,000  Level Jacksonville Center
07:33PM 32.3458 -78.0658 196° South 416 479 40,000  Level Jacksonville Center
07:34PM 32.2369 -78.1083 198° South 411 473 40,000  Level Jacksonville Center
07:35PM 32.1281 -78.1533 199° South 416 479 40,000  Level Jacksonville Center
07:36PM 32.0167 -78.1886 195° South 416 479 40,000  Level Jacksonville Center
07:37PM 31.9075 -78.2283 197° South 416 479 40,000  Level Jacksonville Center
07:38PM 31.8108 -78.2700 200° South 416 479 40,000  Level Jacksonville Center
07:39PM 31.6997 -78.3144 199° South 421 484 40,000  Level Jacksonville Center
07:40PM 31.5883 -78.3517 196° South 421 484 40,000  Level Jacksonville Center
07:41PM 31.4792 -78.3911 197° South 421 484 40,000  Level Jacksonville Center
07:42PM 31.3658 -78.4331 198° South 421 484 40,000  Level Jacksonville Center
07:43PM 31.2522 -78.4725 197° South 421 484 40,000  Level Jacksonville Center
07:44PM 31.1411 -78.5142 198° South 421 484 40,000  Level Jacksonville Center
07:45PM 31.0131 -78.5589 197° South 426 490 40,000  Level Jacksonville Center
07:46PM 30.9019 -78.6003 198° South 435 501 40,000  Level Jacksonville Center
07:47PM 30.7842 -78.6419 197° South 428 493 40,000  Level Jacksonville Center
07:49PM 30.5933 -78.7156 198° South 447 514 40,000  Level Miami Center
07:50PM 30.4783 -78.7519 195° South 440 506 40,000  Level Miami Center
07:51PM 30.3631 -78.7931 197° South 435 501 40,000  Level Miami Center
07:52PM 30.2458 -78.8367 198° South 435 501 40,000  Level Miami Center
07:53PM 30.1347 -78.8778 198° South 443 510 40,000  Level Miami Center
07:54PM 30.0383 -78.9119 197° South 443 510 40,000  Level Miami Center
07:55PM 29.9147 -78.9622 199° South 437 503 40,000  Level Miami Center
07:56PM 29.7972 -79.0006 196° South 437 503 40,000  Level Miami Center
07:57PM 29.6822 -79.0317 193° South 443 510 40,000  Level Miami Center
07:58PM 29.5506 -79.0481 186° South 458 527 40,000  Level Miami Center
07:59PM 29.4231 -79.0669 187° South 456 525 40,000  Level Miami Center
08:00PM 29.3017 -79.0931 191° South 456 525 40,000  Level Miami Center
08:01PM 29.1781 -79.1144 189° South 451 519 40,000  Level Miami Center
08:02PM 29.0525 -79.1356 188° South 451 519 40,000  Level Miami Center
08:03PM 28.9250 -79.1589 189° South 451 519 40,000 -600 Level Miami Center
08:04PM 28.7994 -79.1800 188° South 457 526 38,900 -1,740 Descending Miami Center
08:05PM 28.6800 -79.2036 190° South 452 520 36,600 -2,340 Descending Miami Center
08:06PM 28.5631 -79.2225 188° South 442 509 34,300 -2,400 Descending Miami Center
08:07PM 28.4394 -79.2436 189° South 447 514 31,900 -2,400 Descending Miami Center
08:08PM 28.3139 -79.2667 189° South 452 520 29,500 -2,400 Descending Miami Center
08:09PM 28.1883 -79.2900 189° South 452 520 27,100 -2,400 Descending Miami Center
08:10PM 28.0667 -79.3108 189° South 452 520 24,700 -2,220 Descending Miami Center
08:11PM 27.9411 -79.3364 190° South 452 520 22,700 -2,040 Descending Miami Center
08:12PM 27.8292 -79.4044 208° Southwest 413 475 20,700 -1,920 Descending Miami Center
08:13PM 27.7425 -79.4658 212° Southwest 413 475 18,900 -1,620 Descending Miami Center
08:14PM 27.6600 -79.5250 212° Southwest 385 443 17,500 -1,560 Descending Miami Center
08:15PM 27.5650 -79.5883 211° Southwest 366 421 15,800 -1,620 Descending Miami Center
08:16PM 27.4803 -79.6447 211° Southwest 361 415 14,300 -1,500 Descending Miami Center
08:17PM 27.4000 -79.6989 211° Southwest 361 415 12,800 -1,500 Descending Miami Center
08:18PM 27.3300 -79.7464 211° Southwest 344 396 11,400 -1,380 Descending Miami Center
08:19PM 27.2581 -79.7961 212° Southwest 318 366 10,100 -1,440 Descending Miami Center
08:20PM 27.1819 -79.8478 211° Southwest 304 350 8,600 -1,320 Descending Miami Center
08:21PM 27.1119 -79.8928 210° Southwest 304 350 7,500 -1,200 Descending Miami Center
08:22PM 27.0403 -79.9328 206° Southwest 291 335 6,300 -1,200 Descending Miami Center
08:23PM 26.9808 -79.9683 208° Southwest 285 328 5,200 -1,200 Descending Miami Center
08:24PM 26.9150 -80.0181 214° Southwest 285 328 4,000 -600 Descending Miami Center
08:25PM 26.8514 -80.0697 216° Southwest 272 313 4,000 -240 Level Miami Center
08:26PM 26.8019 -80.1336 229° Southwest 264 304 3,600 -420 Descending Miami Center
08:28PM 26.6832 -80.0956 270° West  Level Estimated
08:35PM 26.6832 -80.0956 110° East  Level Estimated
08:36PM 26.6832 -80.0956 110° East  Level Estimated
08:37PM 26.6832 -80.0956 110° East  Level Estimated
08:38PM 26.6832 -80.0956 110° East  Level Estimated
08:39PM 26.6832 -80.0956 110° East  Level Estimated
08:40PM 26.6832 -80.0956 110° East  Level Estimated